createdAt,value
2022-08-08T00:02:04.183Z,8.27
2022-08-08T00:04:33.312Z,8.77
2022-08-08T00:07:21.062Z,8.65
2022-08-08T00:10:10.814Z,8.27
2022-08-08T00:12:56.291Z,9.43
2022-08-08T00:15:56.674Z,7.03
2022-08-08T00:18:37.757Z,7.28
2022-08-08T00:21:16.342Z,9.20
2022-08-08T00:23:51.048Z,9.82
2022-08-08T00:26:29.366Z,7.95
2022-08-08T00:29:14.977Z,8.75
2022-08-08T00:32:20.751Z,9.95
2022-08-08T00:35:20.505Z,11.25
2022-08-08T00:38:06.386Z,6.25
2022-08-08T00:41:22.191Z,7.93
2022-08-08T00:44:34.672Z,10.02
2022-08-08T00:48:05.261Z,8.18
2022-08-08T00:51:22.846Z,9.02
2022-08-08T00:54:41.764Z,10.80
2022-08-08T00:57:48.519Z,9.90
2022-08-08T01:00:28.156Z,12.80
2022-08-08T01:04:02.128Z,12.45
2022-08-08T01:07:18.925Z,9.18
2022-08-08T01:10:42.866Z,9.85
2022-08-08T01:13:45.988Z,10.38
2022-08-08T01:16:57.695Z,11.55
2022-08-08T01:20:02.636Z,11.15
2022-08-08T01:22:55.727Z,12.93
2022-08-08T01:25:43.438Z,12.30
2022-08-08T01:28:36.892Z,13.00
2022-08-08T01:32:13.717Z,13.60
2022-08-08T01:35:30.650Z,9.63
2022-08-08T01:38:15.321Z,11.45
2022-08-08T01:41:01.530Z,11.52
2022-08-08T01:43:49.018Z,10.10
2022-08-08T01:46:47.709Z,11.57
2022-08-08T01:49:43.637Z,12.02
2022-08-08T01:53:35.270Z,10.63
2022-08-08T01:56:27.703Z,12.40
2022-08-08T01:58:38.883Z,8.93
2022-08-08T02:01:28.063Z,9.52
2022-08-08T02:04:22.107Z,8.68
2022-08-08T02:06:59.431Z,10.68
2022-08-08T02:10:02.512Z,12.30
2022-08-08T02:12:51.774Z,13.27
2022-08-08T02:15:30.535Z,10.35
2022-08-08T02:18:25.526Z,10.73
2022-08-08T02:21:18.299Z,9.98
2022-08-08T02:23:58.830Z,11.05
2022-08-08T02:26:35.449Z,10.30
2022-08-08T02:29:20.788Z,10.23
2022-08-08T02:32:08.611Z,9.75
2022-08-08T02:35:11.081Z,9.10
2022-08-08T02:38:41.568Z,10.40
2022-08-08T02:42:04.371Z,7.90
2022-08-08T02:45:18.836Z,9.65
2022-08-08T02:48:26.289Z,9.45
2022-08-08T02:51:38.961Z,10.77
2022-08-08T02:54:50.768Z,12.65
2022-08-08T02:57:55.172Z,11.75
2022-08-08T03:01:14.945Z,10.45
2022-08-08T03:05:02.374Z,11.18
2022-08-08T03:07:59.283Z,9.07
2022-08-08T03:11:31.815Z,10.00
2022-08-08T03:15:56.635Z,11.48
2022-08-08T03:17:39.708Z,12.93
2022-08-08T03:20:11.792Z,11.88
2022-08-08T03:22:56.188Z,13.20
2022-08-08T03:25:33.990Z,14.20
2022-08-08T03:28:10.924Z,13.10
2022-08-08T03:30:48.734Z,12.77
2022-08-08T03:34:00.274Z,14.00
2022-08-08T03:36:19.547Z,14.18
2022-08-08T03:39:04.194Z,14.20
2022-08-08T03:42:11.549Z,16.00
2022-08-08T03:44:34.842Z,12.75
2022-08-08T03:47:19.744Z,13.38
2022-08-08T03:49:58.607Z,13.77
2022-08-08T03:52:33.690Z,14.10
2022-08-08T03:55:55.272Z,14.15
2022-08-08T03:58:36.334Z,14.23
2022-08-08T04:01:01.552Z,13.93
2022-08-08T04:03:57.015Z,12.38
2022-08-08T04:06:29.401Z,13.43
2022-08-08T04:09:10.438Z,16.83
2022-08-08T04:11:58.930Z,13.13
2022-08-08T04:14:46.164Z,14.90
2022-08-08T04:17:45.735Z,15.82
2022-08-08T04:20:09.804Z,15.75
2022-08-08T04:22:38.811Z,16.95
2022-08-08T04:25:13.154Z,18.80
2022-08-08T04:28:02.250Z,13.75
2022-08-08T04:30:36.684Z,15.10
2022-08-08T04:33:15.703Z,16.55
2022-08-08T04:35:50.648Z,15.50
2022-08-08T04:38:22.180Z,17.88
2022-08-08T04:40:54.059Z,17.67
2022-08-08T04:43:32.342Z,16.67
2022-08-08T04:46:18.586Z,15.35
2022-08-08T04:48:49.447Z,21.42
2022-08-08T04:51:27.976Z,17.40
2022-08-08T04:54:38.229Z,16.75
2022-08-08T04:56:56.903Z,14.88
2022-08-08T04:59:30.069Z,20.70
2022-08-08T05:02:00.958Z,19.95
2022-08-08T05:04:30.287Z,18.50
2022-08-08T05:06:59.013Z,19.20
2022-08-08T05:09:27.595Z,17.73
2022-08-08T05:11:57.810Z,19.15
2022-08-08T05:14:30.978Z,19.05
2022-08-08T05:17:08.760Z,19.50
2022-08-08T05:20:09.579Z,16.50
2022-08-08T05:22:35.859Z,14.55
2022-08-08T05:25:06.185Z,17.17
2022-08-08T05:27:41.814Z,16.75
2022-08-08T05:30:16.676Z,15.48
2022-08-08T05:32:57.232Z,17.23
2022-08-08T05:35:27.784Z,17.17
2022-08-08T05:38:04.666Z,19.98
2022-08-08T05:40:58.070Z,18.80
2022-08-08T05:43:39.420Z,17.70
2022-08-08T05:46:24.611Z,15.10
2022-08-08T05:48:56.256Z,16.48
2022-08-08T05:51:48.132Z,16.83
2022-08-08T05:54:28.873Z,16.58
2022-08-08T05:57:57.455Z,15.13
2022-08-08T06:00:24.940Z,17.17
2022-08-08T06:03:24.860Z,15.73
2022-08-08T06:06:01.381Z,17.88
2022-08-08T06:08:40.260Z,15.48
2022-08-08T06:11:22.335Z,16.20
2022-08-08T06:13:57.101Z,15.20
2022-08-08T06:16:30.122Z,13.73
2022-08-08T06:19:07.366Z,13.05
2022-08-08T06:21:51.680Z,15.05
2022-08-08T06:24:35.908Z,12.77
2022-08-08T06:27:10.664Z,15.57
2022-08-08T06:29:59.170Z,17.08
2022-08-08T06:32:31.366Z,16.85
2022-08-08T06:35:35.536Z,13.57
2022-08-08T06:38:09.276Z,14.82
2022-08-08T06:40:48.596Z,15.52
2022-08-08T06:43:28.579Z,14.30
2022-08-08T06:46:09.216Z,15.15
2022-08-08T06:48:42.349Z,13.45
2022-08-08T06:51:15.899Z,14.30
2022-08-08T06:53:50.952Z,15.02
2022-08-08T06:56:32.119Z,15.02
2022-08-08T06:59:02.181Z,16.17
2022-08-08T07:02:18.142Z,16.92
2022-08-08T07:04:45.384Z,15.40
2022-08-08T07:07:39.590Z,15.57
2022-08-08T07:10:12.706Z,15.85
2022-08-08T07:12:47.453Z,19.20
2022-08-08T07:15:40.848Z,18.98
2022-08-08T07:18:36.813Z,15.75
2022-08-08T07:21:19.282Z,17.65
2022-08-08T07:24:03.081Z,14.25
2022-08-08T07:26:41.706Z,14.40
2022-08-08T07:29:20.421Z,14.65
2022-08-08T07:32:03.258Z,14.05
2022-08-08T07:34:33.063Z,10.25
2022-08-08T07:37:11.767Z,13.38
2022-08-08T07:39:57.918Z,17.30
2022-08-08T07:42:33.040Z,15.02
2022-08-08T07:45:04.564Z,11.68
2022-08-08T07:47:39.380Z,14.60
2022-08-08T07:50:11.796Z,13.65
2022-08-08T07:52:47.543Z,15.35
2022-08-08T07:55:28.651Z,13.10
2022-08-08T07:58:14.751Z,13.38
2022-08-08T08:00:49.349Z,8.82
2022-08-08T08:03:31.188Z,14.18
2022-08-08T08:06:16.513Z,12.93
2022-08-08T08:08:52.539Z,11.40
2022-08-08T08:11:33.565Z,12.07
2022-08-08T08:14:10.685Z,10.35
2022-08-08T08:16:48.542Z,8.15
2022-08-08T08:19:45.389Z,11.88
2022-08-08T08:22:31.252Z,12.48
2022-08-08T08:25:08.088Z,14.38
2022-08-08T08:27:46.568Z,10.40
2022-08-08T08:30:16.431Z,11.30
2022-08-08T08:32:51.459Z,11.10
2022-08-08T08:35:29.805Z,8.52
2022-08-08T08:38:17.534Z,7.35
2022-08-08T08:40:53.806Z,9.50
2022-08-08T08:43:26.861Z,7.53
2022-08-08T08:46:03.528Z,4.50
2022-08-08T08:48:35.008Z,9.18
2022-08-08T08:51:05.111Z,10.95
2022-08-08T08:53:56.649Z,8.93
2022-08-08T08:56:29.703Z,8.32
2022-08-08T08:59:15.089Z,6.65
2022-08-08T09:01:51.791Z,6.05
2022-08-08T09:04:38.589Z,7.93
2022-08-08T09:07:24.014Z,5.20
2022-08-08T09:10:17.454Z,9.93
2022-08-08T09:12:50.515Z,13.02
2022-08-08T09:15:37.073Z,6.45
2022-08-08T09:18:11.029Z,7.72
2022-08-08T09:21:58.543Z,2.75
2022-08-08T09:23:33.491Z,6.30
2022-08-08T09:26:13.692Z,6.00
2022-08-08T09:28:44.496Z,6.47
2022-08-08T09:31:56.665Z,6.40
2022-08-08T09:34:34.596Z,9.98
2022-08-08T09:37:46.251Z,7.15
2022-08-08T09:40:11.390Z,6.28
2022-08-08T09:42:44.277Z,6.07
2022-08-08T09:45:54.909Z,5.25
2022-08-08T09:48:21.092Z,6.63
2022-08-08T09:50:54.980Z,3.50
2022-08-08T09:53:53.118Z,4.93
2022-08-08T09:56:21.790Z,8.48
2022-08-08T09:58:58.535Z,8.00
2022-08-08T10:01:59.055Z,6.75
2022-08-08T10:04:38.377Z,5.88
2022-08-08T10:07:16.479Z,7.43
2022-08-08T10:09:59.761Z,3.38
2022-08-08T10:12:54.122Z,3.28
2022-08-08T10:15:27.568Z,7.05
2022-08-08T10:18:09.185Z,7.10
2022-08-08T10:20:51.066Z,4.60
2022-08-08T10:23:42.325Z,7.22
2022-08-08T10:26:25.815Z,5.72
2022-08-08T10:29:05.500Z,7.07
2022-08-08T10:31:54.979Z,7.40
2022-08-08T10:34:25.030Z,7.78
2022-08-08T10:36:59.647Z,6.30
2022-08-08T10:39:43.534Z,6.38
2022-08-08T10:42:21.256Z,10.10
2022-08-08T10:45:02.278Z,4.78
2022-08-08T10:47:43.948Z,5.63
2022-08-08T10:50:16.697Z,5.63
2022-08-08T10:52:46.550Z,7.03
2022-08-08T10:55:39.684Z,4.82
2022-08-08T10:58:07.797Z,4.00
2022-08-08T11:00:52.731Z,7.35
2022-08-08T11:03:36.528Z,5.32
2022-08-08T11:06:17.533Z,7.15
2022-08-08T11:08:49.960Z,5.65
2022-08-08T11:11:32.592Z,4.40
2022-08-08T11:14:16.083Z,3.90
2022-08-08T11:16:47.243Z,8.15
2022-08-08T11:19:17.205Z,7.20
2022-08-08T11:21:55.484Z,6.45
2022-08-08T11:24:27.395Z,8.88
2022-08-08T11:27:01.314Z,4.50
2022-08-08T11:29:51.498Z,5.38
2022-08-08T11:32:32.238Z,9.70
2022-08-08T11:35:23.176Z,5.53
2022-08-08T11:38:39.757Z,3.83
2022-08-08T11:40:51.743Z,3.30
2022-08-08T11:43:26.005Z,6.00
2022-08-08T11:46:17.855Z,4.30
2022-08-08T11:48:48.721Z,6.57
2022-08-08T11:51:29.580Z,3.90
2022-08-08T11:54:09.699Z,6.70
2022-08-08T11:56:57.625Z,5.80
2022-08-08T11:59:58.293Z,5.03
2022-08-08T12:02:33.020Z,9.43
2022-08-08T12:05:03.486Z,5.85
2022-08-08T12:07:32.421Z,3.75
2022-08-08T12:10:12.364Z,6.57
2022-08-08T12:12:48.680Z,5.75
2022-08-08T12:15:28.198Z,4.13
2022-08-08T12:17:56.603Z,6.82
2022-08-08T12:20:25.656Z,5.03
2022-08-08T12:22:57.032Z,4.72
2022-08-08T12:25:30.947Z,6.38
2022-08-08T12:28:15.467Z,4.82
2022-08-08T12:30:47.910Z,4.13
2022-08-08T12:33:19.840Z,5.22
2022-08-08T12:35:52.389Z,4.45
2022-08-08T12:41:33.685Z,6.72
2022-08-08T12:44:08.362Z,3.97
2022-08-08T12:46:37.710Z,5.28
2022-08-08T12:49:29.517Z,5.63
2022-08-08T12:52:00.372Z,7.03
2022-08-08T12:54:33.433Z,3.33
2022-08-08T12:57:17.358Z,6.13
2022-08-08T13:00:03.451Z,3.38
2022-08-08T13:02:37.016Z,7.95
2022-08-08T13:05:26.415Z,7.35
2022-08-08T13:08:17.742Z,3.53
2022-08-08T13:10:57.301Z,6.00
2022-08-08T13:13:35.470Z,8.25
2022-08-08T13:16:25.892Z,7.40
2022-08-08T13:19:02.585Z,4.32
2022-08-08T13:21:53.061Z,8.55
2022-08-08T13:24:42.265Z,5.50
2022-08-08T13:27:16.038Z,4.90
2022-08-08T13:29:54.971Z,11.05
2022-08-08T13:32:26.213Z,5.82
2022-08-08T13:34:56.120Z,10.57
2022-08-08T13:37:52.111Z,5.85
2022-08-08T13:40:17.801Z,4.22
2022-08-08T13:42:55.947Z,6.57
2022-08-08T13:45:27.186Z,1.63
2022-08-08T13:48:01.143Z,4.13
2022-08-08T13:50:48.062Z,4.60
2022-08-08T13:53:34.383Z,6.65
2022-08-08T13:56:11.868Z,2.95
2022-08-08T13:58:57.528Z,4.55
2022-08-08T14:01:32.748Z,4.57
2022-08-08T14:04:25.128Z,4.72
2022-08-08T14:07:00.428Z,6.53
2022-08-08T14:10:02.236Z,7.75
2022-08-08T14:12:28.213Z,4.47
2022-08-08T14:14:57.236Z,7.88
2022-08-08T14:17:57.109Z,2.38
2022-08-08T14:20:55.853Z,3.88
2022-08-08T14:23:10.153Z,4.60
2022-08-08T14:25:46.826Z,3.90
2022-08-08T14:28:23.705Z,4.18
2022-08-08T14:31:09.250Z,4.75
2022-08-08T14:33:39.316Z,6.35
2022-08-08T14:36:13.357Z,2.85
2022-08-08T14:38:52.545Z,4.85
2022-08-08T14:41:53.847Z,5.03
2022-08-08T14:44:16.965Z,4.88
2022-08-08T14:47:01.044Z,5.93
2022-08-08T14:49:37.801Z,4.70
2022-08-08T14:52:25.415Z,4.70
2022-08-08T14:54:53.777Z,5.53
2022-08-08T14:58:03.312Z,5.75
2022-08-08T15:00:11.885Z,4.03
2022-08-08T15:03:01.462Z,4.90
2022-08-08T15:05:42.956Z,5.10
2022-08-08T15:08:35.542Z,5.65
2022-08-08T15:11:09.493Z,3.22
2022-08-08T15:14:01.718Z,5.97
2022-08-08T15:16:34.292Z,4.60
2022-08-08T15:19:03.791Z,7.13
2022-08-08T15:21:33.072Z,10.05
2022-08-08T15:24:03.243Z,6.20
2022-08-08T15:26:32.181Z,9.73
2022-08-08T15:29:01.028Z,7.18
2022-08-08T15:32:03.029Z,5.80
2022-08-08T15:34:31.653Z,7.97
2022-08-08T15:37:02.941Z,4.63
2022-08-08T15:39:38.585Z,6.50
2022-08-08T15:42:10.210Z,6.00
2022-08-08T15:44:42.621Z,6.15
2022-08-08T15:47:16.306Z,4.80
2022-08-08T15:49:49.018Z,5.65
2022-08-08T15:52:20.774Z,5.50
2022-08-08T15:54:52.803Z,5.18
2022-08-08T15:57:23.210Z,4.65
2022-08-08T16:00:05.721Z,3.05
2022-08-08T16:02:50.203Z,5.90
2022-08-08T16:05:20.032Z,6.70
2022-08-08T16:07:53.150Z,6.30
2022-08-08T16:13:27.358Z,5.80
2022-08-08T16:13:32.479Z,5.97
2022-08-08T16:16:13.161Z,6.75
2022-08-08T16:18:56.882Z,5.30
2022-08-08T16:21:29.158Z,4.07
2022-08-08T16:23:58.552Z,5.47
2022-08-08T16:26:34.163Z,6.10
2022-08-08T16:29:10.838Z,5.15
2022-08-08T16:31:48.751Z,5.03
2022-08-08T16:34:19.172Z,4.43
2022-08-08T16:36:50.280Z,5.35
2022-08-08T16:39:54.949Z,5.72
2022-08-08T16:42:17.808Z,3.85
2022-08-08T16:44:54.444Z,9.18
2022-08-08T16:47:40.471Z,3.97
2022-08-08T16:50:14.671Z,7.95
2022-08-08T16:55:19.333Z,8.07
2022-08-08T16:55:53.940Z,6.05
2022-08-08T16:58:25.630Z,4.03
2022-08-08T17:00:58.098Z,7.88
2022-08-08T17:04:01.303Z,9.88
2022-08-08T17:06:17.677Z,3.67
2022-08-08T17:09:05.288Z,6.22
2022-08-08T17:11:49.305Z,3.75
2022-08-08T17:14:27.254Z,6.20
2022-08-08T17:16:58.244Z,5.40
2022-08-08T17:19:28.986Z,5.47
2022-08-08T17:22:01.080Z,5.30
2022-08-08T17:24:30.934Z,5.03
2022-08-08T17:27:00.129Z,6.57
2022-08-08T17:29:33.677Z,7.53
2022-08-08T17:32:07.829Z,4.70
2022-08-08T17:35:04.377Z,5.35
2022-08-08T17:37:27.627Z,7.18
2022-08-08T17:40:12.263Z,6.93
2022-08-08T17:42:47.365Z,6.00
2022-08-08T17:45:23.927Z,5.82
2022-08-08T17:47:54.618Z,4.72
2022-08-08T17:50:24.848Z,7.90
2022-08-08T17:52:54.093Z,6.82
2022-08-08T17:56:05.366Z,4.43
2022-08-08T17:58:15.470Z,2.33
2022-08-08T18:00:47.525Z,4.75
2022-08-08T18:03:24.370Z,4.30
2022-08-08T18:05:53.089Z,4.60
2022-08-08T18:08:24.824Z,6.55
2022-08-08T18:11:15.320Z,6.53
2022-08-08T18:13:45.785Z,4.28
2022-08-08T18:16:20.664Z,8.00
2022-08-08T18:18:56.641Z,8.77
2022-08-08T18:22:00.403Z,5.18
2022-08-08T18:24:19.425Z,4.57
2022-08-08T18:26:54.442Z,7.15
2022-08-08T18:29:33.480Z,5.93
2022-08-08T18:32:05.388Z,5.20
2022-08-08T18:34:36.929Z,8.75
2022-08-08T18:37:09.327Z,6.13
2022-08-08T18:57:08.888Z,7.10
2022-08-08T19:00:10.693Z,6.38
2022-08-08T19:04:01.566Z,9.38
2022-08-08T19:22:37.591Z,8.02
2022-08-08T19:26:01.795Z,5.68
2022-08-08T19:28:19.479Z,6.30
2022-08-08T19:44:02.833Z,7.32
2022-08-08T19:51:46.893Z,7.10
2022-08-08T19:55:19.772Z,10.32
2022-08-08T20:02:30.912Z,8.10
2022-08-08T20:08:32.302Z,6.72
2022-08-08T20:11:01.085Z,7.60
2022-08-08T20:14:12.831Z,10.15
2022-08-08T20:16:18.842Z,11.77
2022-08-08T20:18:53.022Z,7.88
2022-08-08T20:21:27.354Z,7.57
2022-08-08T20:24:00.277Z,3.55
2022-08-08T20:26:29.832Z,5.78
2022-08-08T20:29:02.582Z,6.35
2022-08-08T20:32:06.869Z,8.02
2022-08-08T20:34:30.281Z,7.57
2022-08-08T20:37:02.497Z,5.70
2022-08-08T20:39:39.559Z,7.20
2022-08-08T20:42:28.756Z,7.43
2022-08-08T20:45:07.092Z,7.10
2022-08-08T20:47:36.528Z,7.30
2022-08-08T20:50:10.062Z,5.65
2022-08-08T20:52:39.547Z,7.78
2022-08-08T20:55:22.364Z,10.07
2022-08-08T20:57:51.554Z,5.85
2022-08-08T21:00:41.307Z,9.48
2022-08-08T21:03:16.956Z,7.00
2022-08-08T21:05:49.169Z,9.52
2022-08-08T21:08:36.759Z,7.88
2022-08-08T21:11:16.959Z,7.65
2022-08-08T21:14:06.724Z,5.43
2022-08-08T21:16:36.932Z,8.05
2022-08-08T21:19:10.928Z,8.63
2022-08-08T21:21:42.711Z,6.63
2022-08-08T21:24:20.948Z,8.75
2022-08-08T21:26:59.171Z,11.48
2022-08-08T21:30:05.669Z,10.32
2022-08-08T21:32:25.117Z,10.52
2022-08-08T21:34:56.770Z,10.10
2022-08-08T21:37:53.758Z,10.07
2022-08-08T21:40:31.097Z,9.07
2022-08-08T21:42:59.670Z,10.90
2022-08-08T21:48:00.862Z,9.00
2022-08-08T21:48:35.395Z,8.60
2022-08-08T21:51:10.740Z,8.52
2022-08-08T21:54:35.170Z,8.77
2022-08-08T21:56:36.043Z,11.13
2022-08-08T22:00:03.310Z,9.05
2022-08-08T22:02:22.835Z,9.52
2022-08-08T22:04:52.987Z,6.05
2022-08-08T22:07:26.120Z,9.98
2022-08-08T22:10:09.313Z,8.75
2022-08-08T22:12:51.145Z,6.40
2022-08-08T22:15:20.118Z,9.50
2022-08-08T22:18:01.997Z,8.30
2022-08-08T22:20:35.778Z,10.38
2022-08-08T22:23:08.267Z,9.95
2022-08-08T22:26:19.991Z,9.98
2022-08-08T22:29:14.383Z,8.55
2022-08-08T22:31:15.629Z,8.73
2022-08-08T22:34:12.403Z,9.90
2022-08-08T22:36:34.746Z,9.38
2022-08-08T22:39:06.675Z,8.30
2022-08-08T22:41:36.422Z,10.27
2022-08-08T22:44:07.449Z,10.18
2022-08-08T22:46:38.999Z,9.70
2022-08-08T22:49:09.256Z,11.02
2022-08-08T22:51:46.061Z,7.95
2022-08-08T22:54:30.679Z,8.48
2022-08-08T22:57:11.327Z,9.13
2022-08-08T22:59:58.664Z,8.30
2022-08-08T23:02:28.816Z,9.30
2022-08-08T23:05:01.958Z,9.63
2022-08-08T23:07:51.085Z,11.63
2022-08-08T23:10:25.302Z,7.78
2022-08-08T23:12:56.348Z,9.57
2022-08-08T23:16:41.202Z,7.55
2022-08-08T23:18:13.651Z,9.60
2022-08-08T23:20:56.715Z,10.20
2022-08-08T23:23:24.982Z,8.32
2022-08-08T23:25:53.088Z,8.55
2022-08-08T23:28:25.883Z,6.80
2022-08-08T23:30:54.069Z,9.52
2022-08-08T23:34:16.696Z,7.82
2022-08-08T23:36:11.426Z,6.90
2022-08-08T23:38:44.054Z,8.18
2022-08-08T23:41:23.115Z,10.75
2022-08-08T23:43:56.464Z,10.35
2022-08-08T23:49:03.603Z,10.18
2022-08-08T23:49:20.520Z,8.35
2022-08-08T23:52:04.794Z,10.02
2022-08-08T23:54:43.130Z,7.75
2022-08-08T23:57:39.130Z,9.25
